Estación Meteorológica de la Universidad de Murcia
Estación Meteorológica de la Universidad de Murcia
Universidad de Murcia
 

Velocidad y dirección del vientoVelocidad y dirección del viento

 

Velocidad: 14,04 km/h a las 10:48:00 del día 12/11/2018
Dirección del viento: 195,1 º S Rosa de los vientos a las 10:48:00 del día 12/11/2018

Nota:
N (entre 337,6º y 22,5º), NE (entre 22,6º y 67,5º), E (entre 67,6º y 112,5º), SE (entre 112,6º y 157,5º), S (entre 157,6º y 202,5º), SW (entre 202,6º y 247,5º), W (entre 247,5º y 292,5º) y NW (entre 292,6º y 337,5º)

||Velocidad últimos meses|| ----||Dirección del viento||


Velocidad

  • 1 - 14,04 km/h del día 12/11/2018
  • 2 - 22,68 km/h del día 11/11/2018
  • 3 - 21,24 km/h del día 10/11/2018
  • 4 - 49,32 km/h del día 09/11/2018
  • 5 - 19,44 km/h del día 08/11/2018
  • 6 - 19,44 km/h del día 07/11/2018
  • 7 - 25,56 km/h del día 06/11/2018
  • 8 - 28,8 km/h del día 05/11/2018
  • 9 - 17,64 km/h del día 04/11/2018
  • 10 - 23,76 km/h del día 03/11/2018
  • 11 - 31,32 km/h del día 02/11/2018
  • 12 - 38,52 km/h del día 01/11/2018
  • 13 - 34,92 km/h del día 31/10/2018
  • 14 - 20,16 km/h del día 30/10/2018
  • 15 - 55,44 km/h del día 29/10/2018
  • 16 - 36,72 km/h del día 28/10/2018
  • 17 - 38,16 km/h del día 27/10/2018
  • 18 - 15,48 km/h del día 26/10/2018
  • 19 - 16,92 km/h del día 25/10/2018
  • 20 - 16,92 km/h del día 24/10/2018
  • 21 - 19,8 km/h del día 23/10/2018
  • 22 - 30,24 km/h del día 22/10/2018
  • 23 - 35,64 km/h del día 21/10/2018
  • 24 - 43,56 km/h del día 20/10/2018
  • 25 - 22,32 km/h del día 19/10/2018
  • 26 - 29,16 km/h del día 18/10/2018
  • 27 - 23,04 km/h del día 17/10/2018
  • 28 - 21,96 km/h del día 16/10/2018
  • 29 - 24,48 km/h del día 15/10/2018
  • 30 - 33,84 km/h del día 14/10/2018
  • 31 - 29,52 km/h del día 13/10/2018
  • 32 - 23,76 km/h del día 12/10/2018
  • 33 - 19,08 km/h del día 11/10/2018
  • 34 - 20,88 km/h del día 10/10/2018
  • 35 - 25,2 km/h del día 09/10/2018
  • 36 - 24,48 km/h del día 08/10/2018
  • 37 - 39,6 km/h del día 07/10/2018
  • 38 - 22,32 km/h del día 06/10/2018
  • 39 - 23,4 km/h del día 05/10/2018
  • 40 - 24,48 km/h del día 04/10/2018
  • 41 - 19,08 km/h del día 03/10/2018
  • 42 - 25,2 km/h del día 02/10/2018
  • 43 - 28,8 km/h del día 01/10/2018
  • 44 - 21,24 km/h del día 30/09/2018
  • 45 - 21,96 km/h del día 29/09/2018
  • 46 - 20,88 km/h del día 28/09/2018
  • 47 - 30,24 km/h del día 27/09/2018
  • 48 - 45 km/h del día 26/09/2018
  • 49 - 30,96 km/h del día 25/09/2018
  • 50 - 24,48 km/h del día 21/09/2018
  • 51 - 24,48 km/h del día 20/09/2018
  • 52 - 25,2 km/h del día 19/09/2018
  • 53 - 32,4 km/h del día 18/09/2018
  • 54 - 25,56 km/h del día 17/09/2018
  • 55 - 27 km/h del día 16/09/2018
  • 56 - 19,8 km/h del día 15/09/2018
  • 57 - 28,8 km/h del día 14/09/2018

||Volver al inicio de la página||


Dirección del viento

  • 1 - 2192.58 º 2192,58 del día 31/10/2018
  • 2 - 1298.6 º 1298,6 del día 30/10/2018
  • 3 - 1677.07 º 1677,07 del día 30/09/2018
  • 4 - 2510.96 º 2510,96 del día 29/10/2018
  • 5 - 1774.73 º 1774,73 del día 29/09/2018
  • 6 - 2330.49 º 2330,49 del día 28/10/2018
  • 7 - 1760.01 º 1760,01 del día 28/09/2018
  • 8 - 2348.36 º 2348,36 del día 27/10/2018
  • 9 - 859.73 º N del día 27/09/2018
  • 10 - 2317.95 º 2317,95 del día 26/10/2018
  • 11 - 1056.85 º 1056,85 del día 26/09/2018
  • 12 - 2295.83 º 2295,83 del día 25/10/2018
  • 13 - 1066.43 º 1066,43 del día 25/09/2018
  • 14 - 2357.62 º 2357,62 del día 24/10/2018
  • 15 - 1575.42 º 1575,42 del día 23/10/2018
  • 16 - 1939.78 º 1939,78 del día 22/10/2018
  • 17 - 2256 º 2256 del día 22/09/2018
  • 18 - 996.02 º N del día 21/10/2018
  • 19 - 2163.4 º 2163,4 del día 21/09/2018
  • 20 - 1489.42 º 1489,42 del día 20/10/2018
  • 21 - 1746.78 º 1746,78 del día 20/09/2018
  • 22 - 1730.97 º 1730,97 del día 19/10/2018
  • 23 - 1482.77 º 1482,77 del día 19/09/2018
  • 24 - 2106.6 º 2106,6 del día 18/10/2018
  • 25 - 1644.83 º 1644,83 del día 18/09/2018
  • 26 - 1923.98 º 1923,98 del día 17/10/2018
  • 27 - 1429.51 º 1429,51 del día 17/09/2018
  • 28 - 1934.39 º 1934,39 del día 16/10/2018
  • 29 - 1864.17 º 1864,17 del día 16/09/2018
  • 30 - 2267.8 º 2267,8 del día 15/10/2018
  • 31 - 1809.6 º 1809,6 del día 15/09/2018
  • 32 - 1593.69 º 1593,69 del día 14/10/2018
  • 33 - 1132.48 º 1132,48 del día 14/09/2018
  • 34 - 2242.91 º 2242,91 del día 13/11/2018
  • 35 - 1633.02 º 1633,02 del día 13/10/2018
  • 36 - 1535.81 º 1535,81 del día 13/09/2018
  • 37 - 1956.21 º 1956,21 del día 12/11/2018
  • 38 - 1718.58 º 1718,58 del día 12/10/2018
  • 39 - 1740.43 º 1740,43 del día 11/11/2018
  • 40 - 2097.16 º 2097,16 del día 11/10/2018
  • 41 - 2269.61 º 2269,61 del día 10/11/2018
  • 42 - 1761.37 º 1761,37 del día 10/10/2018
  • 43 - 2458.3 º 2458,3 del día 09/11/2018
  • 44 - 1814.64 º 1814,64 del día 09/10/2018
  • 45 - 1858.59 º 1858,59 del día 08/11/2018
  • 46 - 1421.85 º 1421,85 del día 08/10/2018
  • 47 - 2189.88 º 2189,88 del día 07/11/2018
  • 48 - 1631.5 º 1631,5 del día 07/10/2018
  • 49 - 2145.97 º 2145,97 del día 06/11/2018
  • 50 - 2194 º 2194 del día 06/10/2018
  • 51 - 2176.57 º 2176,57 del día 05/11/2018
  • 52 - 1758.72 º 1758,72 del día 05/10/2018
  • 53 - 2200.35 º 2200,35 del día 04/11/2018
  • 54 - 1939.56 º 1939,56 del día 04/10/2018
  • 55 - 2160.03 º 2160,03 del día 03/11/2018
  • 56 - 1631.64 º 1631,64 del día 03/10/2018
  • 57 - 1898.36 º 1898,36 del día 02/11/2018
  • 58 - 1301.42 º 1301,42 del día 02/10/2018
  • 59 - 2287.2 º 2287,2 del día 01/11/2018
  • 60 - 1563.33 º 1563,33 del día 01/10/2018

|| Temperatura Ambiente|| Humedad relativa|| Precipitación|| Radiación Solar Global y PAR|| Temperatura y humedad del suelo|| Presión atmosférica|| Más información|| Volver a la página principal|| Volver al inicio de la página||


Estación Meteorológica de la Universidad de Murcia
http://estacion.um.es/
Informacion actualizada a: 13/11/2018 a las 01:09:00